Airfield :
LOGIN :

Register | Disclaimer

   EN    FR    IT 

 










Legend :    VFR   Marginal VFR   IFR   Intensive IFR   Very Intensive IFR
Visi :
Ceiling :
>= 8 km
>= 3000ft
5 to 8 km
1000 to 3000 ft
1500m to 5 km
500 to 1000 ft
800 to 1500m
200 to 500 ft
< 800m
< 200 ft
Symbols :   Thunderstorms  Fog  Heavy snow  Heavy precipitations  Wind > 20 kt
SIGMETs :     Misc.  Thunderstorms  Icing  Turbulence  Mountain Waves  Volcanic Ashes







- Airport Elevation : 1367 ft
- IATA code : FDH


EDNY - Friedrichshafen

CURRENT METAR :
  • 200120Z AUTO 01004KT 9999 // FEW099/// SCT120/// BKN250/// 16/14 Q1014

EXPIRED METARs :
  • 200050Z AUTO VRB04KT 9999 // FEW099/// BKN240/// 15/14 Q1014
  • 200020Z AUTO VRB03KT 9999 // FEW110/// SCT150/// 15/14 Q1014
  • 192350Z AUTO 35004KT 320V030 9999 // FEW110/// SCT130/// OVC150/// 16/14 Q1014
  • 192320Z AUTO 15005KT 110V220 9999 // FEW064/// BKN110/// BKN210/// 17/14 Q1014
  • 192250Z AUTO 13009KT 100V160 9999 // FEW075/// BKN094/// OVC130/// 17/14 Q1014

TAF TAF EDNY
Valid from the 20 at 00:00 until the 21 at 00:00 UTC


192300Z 2000/2024 VRB03KT 9999 FEW025
PROB30
TEMPO 2000/2005 SHRA BKN060CB
BECMG 2007/2009 23005KT
PROB40
TEMPO 2011/2019 30015G25KT TSRA BKN020CB
BECMG 2018/2020 VRB03KT
No reported NOTAMs for that airfield.
2 SIGMETs reported for the München FIR (EDMM) :
 
Embedded thunderstorms
EDMM SIGMET 2 VALID 200130/200300 EDZF
EDMM MUNCHEN FIR EMBD TS FCST WI N5001 E01035 - N4907 E01203 - N4826 E01133 - N4907 E01023 - N4925 E01048 - N5001 E01035 TOP FL380 MOV NNE NC=
Embedded thunderstorms
EDMM SIGMET 1 VALID 200003/200130 EDZF
EDMM MUNCHEN FIR EMBD TS FCST WI N4923 E01102 - N4826 E01156 - N4737 E01139 - N4827 E00937 - N4846 E00946 - N4923 E01102 TOP FL380 MOV NNE NC=



MET'MAP, your aeronautical weather chart ! - Copyright ORBIFLY December 2007 - Disclaimer

ORBIFLY MET'MAP TEAM :

Programming & Development : Alexandra Zaïnal
Concept & Development : Baudouin d'Aumeries
Co-Development & Prog : Marc-Olivier Méhu
Technical & hardware support : Manuel Goepfert

Contact : metmap@orbifly.com




SOURCES & CREDITS :

   NOAA